sensor_id;sensor_type;location;lat;lon;timestamp;temperature;humidity
31387;DHT22;69978;50.096;8.448;2023-05-10T00:00:20;14.70;99.90
31387;DHT22;69978;50.096;8.448;2023-05-10T00:02:47;14.70;99.90
31387;DHT22;69978;50.096;8.448;2023-05-10T00:05:13;14.70;99.90
31387;DHT22;69978;50.096;8.448;2023-05-10T00:07:39;14.70;99.90
31387;DHT22;69978;50.096;8.448;2023-05-10T00:10:05;14.60;99.90
31387;DHT22;69978;50.096;8.448;2023-05-10T00:12:30;14.60;99.90
31387;DHT22;69978;50.096;8.448;2023-05-10T00:14:56;14.60;99.90
31387;DHT22;69978;50.096;8.448;2023-05-10T00:17:21;14.60;99.90
31387;DHT22;69978;50.096;8.448;2023-05-10T00:19:47;14.60;99.90
31387;DHT22;69978;50.096;8.448;2023-05-10T00:22:13;14.60;99.90
31387;DHT22;69978;50.096;8.448;2023-05-10T00:24:39;14.60;99.90
31387;DHT22;69978;50.096;8.448;2023-05-10T00:27:04;14.50;99.90
31387;DHT22;69978;50.096;8.448;2023-05-10T00:29:30;14.50;99.90
31387;DHT22;69978;50.096;8.448;2023-05-10T00:31:57;14.50;99.90
31387;DHT22;69978;50.096;8.448;2023-05-10T00:34:22;14.40;99.90
31387;DHT22;69978;50.096;8.448;2023-05-10T00:36:48;14.40;99.90
31387;DHT22;69978;50.096;8.448;2023-05-10T00:39:13;14.40;99.90
31387;DHT22;69978;50.096;8.448;2023-05-10T00:41:39;14.40;99.90
31387;DHT22;69978;50.096;8.448;2023-05-10T00:44:05;14.30;99.90
31387;DHT22;69978;50.096;8.448;2023-05-10T00:46:31;14.30;99.90
31387;DHT22;69978;50.096;8.448;2023-05-10T00:48:56;14.40;99.90
31387;DHT22;69978;50.096;8.448;2023-05-10T00:51:22;14.40;99.90
31387;DHT22;69978;50.096;8.448;2023-05-10T00:53:48;14.40;99.90
31387;DHT22;69978;50.096;8.448;2023-05-10T00:56:15;14.30;99.90
31387;DHT22;69978;50.096;8.448;2023-05-10T00:58:41;14.30;99.90
31387;DHT22;69978;50.096;8.448;2023-05-10T01:01:08;14.30;99.90
31387;DHT22;69978;50.096;8.448;2023-05-10T01:03:34;14.30;99.90
31387;DHT22;69978;50.096;8.448;2023-05-10T01:06:00;14.30;99.90
31387;DHT22;69978;50.096;8.448;2023-05-10T01:08:26;14.30;99.90
31387;DHT22;69978;50.096;8.448;2023-05-10T01:10:52;14.20;99.90
31387;DHT22;69978;50.096;8.448;2023-05-10T01:15:58;14.20;99.90
31387;DHT22;69978;50.096;8.448;2023-05-10T01:18:24;14.20;99.90
31387;DHT22;69978;50.096;8.448;2023-05-10T01:21:30;14.20;99.90
31387;DHT22;69978;50.096;8.448;2023-05-10T01:32:21;14.10;99.90
31387;DHT22;69978;50.096;8.448;2023-05-10T01:35:06;14.00;99.90
31387;DHT22;69978;50.096;8.448;2023-05-10T01:37:41;14.00;99.90
31387;DHT22;69978;50.096;8.448;2023-05-10T01:42:54;14.00;99.90
31387;DHT22;69978;50.096;8.448;2023-05-10T01:48:11;14.00;99.90
31387;DHT22;69978;50.096;8.448;2023-05-10T01:50:40;13.90;99.90
31387;DHT22;69978;50.096;8.448;2023-05-10T01:53:09;13.90;99.90
31387;DHT22;69978;50.096;8.448;2023-05-10T01:55:44;13.90;99.90
31387;DHT22;69978;50.096;8.448;2023-05-10T01:58:19;13.80;99.90
31387;DHT22;69978;50.096;8.448;2023-05-10T02:00:46;13.90;99.90
31387;DHT22;69978;50.096;8.448;2023-05-10T02:03:13;13.90;99.90
31387;DHT22;69978;50.096;8.448;2023-05-10T02:05:41;13.90;99.90
31387;DHT22;69978;50.096;8.448;2023-05-10T02:08:08;13.90;99.90
31387;DHT22;69978;50.096;8.448;2023-05-10T02:10:35;13.90;99.90
31387;DHT22;69978;50.096;8.448;2023-05-10T02:13:02;13.90;99.90
31387;DHT22;69978;50.096;8.448;2023-05-10T02:15:28;13.90;99.90
31387;DHT22;69978;50.096;8.448;2023-05-10T02:17:56;13.80;99.90
31387;DHT22;69978;50.096;8.448;2023-05-10T02:20:23;13.90;99.90
31387;DHT22;69978;50.096;8.448;2023-05-10T02:22:51;13.90;99.90
31387;DHT22;69978;50.096;8.448;2023-05-10T02:25:19;13.90;99.90
31387;DHT22;69978;50.096;8.448;2023-05-10T02:27:47;13.90;99.90
31387;DHT22;69978;50.096;8.448;2023-05-10T02:30:13;13.90;99.90
31387;DHT22;69978;50.096;8.448;2023-05-10T02:32:39;13.90;99.90
31387;DHT22;69978;50.096;8.448;2023-05-10T02:35:06;13.90;99.90
31387;DHT22;69978;50.096;8.448;2023-05-10T02:37:33;13.90;99.90
31387;DHT22;69978;50.096;8.448;2023-05-10T02:39:59;13.80;99.90
31387;DHT22;69978;50.096;8.448;2023-05-10T02:42:27;13.90;99.90
31387;DHT22;69978;50.096;8.448;2023-05-10T02:44:56;13.80;99.90
31387;DHT22;69978;50.096;8.448;2023-05-10T02:47:24;13.80;99.90
31387;DHT22;69978;50.096;8.448;2023-05-10T02:49:50;13.80;99.90
31387;DHT22;69978;50.096;8.448;2023-05-10T02:52:25;13.80;99.90
31387;DHT22;69978;50.096;8.448;2023-05-10T02:54:55;13.80;99.90
31387;DHT22;69978;50.096;8.448;2023-05-10T02:57:27;13.80;99.90
31387;DHT22;69978;50.096;8.448;2023-05-10T02:59:53;13.80;99.90
31387;DHT22;69978;50.096;8.448;2023-05-10T03:02:19;13.70;99.90
31387;DHT22;69978;50.096;8.448;2023-05-10T03:04:45;13.70;99.90
31387;DHT22;69978;50.096;8.448;2023-05-10T03:07:10;13.70;99.90
31387;DHT22;69978;50.096;8.448;2023-05-10T03:09:36;13.70;99.90
31387;DHT22;69978;50.096;8.448;2023-05-10T03:17:55;13.70;99.90
31387;DHT22;69978;50.096;8.448;2023-05-10T03:20:29;13.60;99.90
31387;DHT22;69978;50.096;8.448;2023-05-10T03:23:27;13.60;99.90
31387;DHT22;69978;50.096;8.448;2023-05-10T03:25:55;13.60;99.90
31387;DHT22;69978;50.096;8.448;2023-05-10T03:28:25;13.70;99.90
31387;DHT22;69978;50.096;8.448;2023-05-10T03:30:52;13.60;99.90
31387;DHT22;69978;50.096;8.448;2023-05-10T03:33:18;13.60;99.90
31387;DHT22;69978;50.096;8.448;2023-05-10T03:35:44;13.60;99.90
31387;DHT22;69978;50.096;8.448;2023-05-10T03:38:11;13.70;99.90
31387;DHT22;69978;50.096;8.448;2023-05-10T03:40:37;13.70;99.90
31387;DHT22;69978;50.096;8.448;2023-05-10T03:43:02;13.70;99.90
31387;DHT22;69978;50.096;8.448;2023-05-10T03:45:28;13.70;99.90
31387;DHT22;69978;50.096;8.448;2023-05-10T03:47:54;13.70;99.90
31387;DHT22;69978;50.096;8.448;2023-05-10T03:50:20;13.70;99.90
31387;DHT22;69978;50.096;8.448;2023-05-10T03:52:45;13.70;99.90
31387;DHT22;69978;50.096;8.448;2023-05-10T03:55:11;13.70;99.90
31387;DHT22;69978;50.096;8.448;2023-05-10T03:57:37;13.70;99.90
31387;DHT22;69978;50.096;8.448;2023-05-10T04:00:03;13.70;99.90
31387;DHT22;69978;50.096;8.448;2023-05-10T04:02:29;13.70;99.90
31387;DHT22;69978;50.096;8.448;2023-05-10T04:04:55;13.70;99.90
31387;DHT22;69978;50.096;8.448;2023-05-10T04:07:21;13.70;99.90
31387;DHT22;69978;50.096;8.448;2023-05-10T04:09:47;13.70;99.90
31387;DHT22;69978;50.096;8.448;2023-05-10T04:12:13;13.70;99.90
31387;DHT22;69978;50.096;8.448;2023-05-10T04:14:38;13.70;99.90
31387;DHT22;69978;50.096;8.448;2023-05-10T04:17:04;13.70;99.90
31387;DHT22;69978;50.096;8.448;2023-05-10T04:19:32;13.80;99.90
31387;DHT22;69978;50.096;8.448;2023-05-10T04:21:58;13.80;99.90
31387;DHT22;69978;50.096;8.448;2023-05-10T04:24:24;13.80;99.90
31387;DHT22;69978;50.096;8.448;2023-05-10T04:26:50;13.70;99.90
31387;DHT22;69978;50.096;8.448;2023-05-10T04:29:21;13.70;99.90
31387;DHT22;69978;50.096;8.448;2023-05-10T04:31:47;13.70;99.90
31387;DHT22;69978;50.096;8.448;2023-05-10T04:34:14;13.70;99.90
31387;DHT22;69978;50.096;8.448;2023-05-10T04:36:39;13.80;99.90
31387;DHT22;69978;50.096;8.448;2023-05-10T04:39:05;13.70;99.90
31387;DHT22;69978;50.096;8.448;2023-05-10T04:41:31;13.70;99.90
31387;DHT22;69978;50.096;8.448;2023-05-10T04:43:56;13.80;99.90
31387;DHT22;69978;50.096;8.448;2023-05-10T04:46:22;13.70;99.90
31387;DHT22;69978;50.096;8.448;2023-05-10T04:48:47;13.70;99.90
31387;DHT22;69978;50.096;8.448;2023-05-10T04:51:13;13.80;99.90
31387;DHT22;69978;50.096;8.448;2023-05-10T04:53:38;13.80;99.90
31387;DHT22;69978;50.096;8.448;2023-05-10T04:56:04;13.80;99.90
31387;DHT22;69978;50.096;8.448;2023-05-10T04:58:30;13.80;99.90
31387;DHT22;69978;50.096;8.448;2023-05-10T05:00:56;13.80;99.90
31387;DHT22;69978;50.096;8.448;2023-05-10T05:03:21;13.80;99.90
31387;DHT22;69978;50.096;8.448;2023-05-10T05:05:47;13.90;99.90
31387;DHT22;69978;50.096;8.448;2023-05-10T05:08:13;13.80;99.90
31387;DHT22;69978;50.096;8.448;2023-05-10T05:10:38;13.80;99.90
31387;DHT22;69978;50.096;8.448;2023-05-10T05:13:04;13.70;99.90
31387;DHT22;69978;50.096;8.448;2023-05-10T05:15:29;13.80;99.90
31387;DHT22;69978;50.096;8.448;2023-05-10T05:17:56;13.80;99.90
31387;DHT22;69978;50.096;8.448;2023-05-10T05:20:21;13.80;99.90
31387;DHT22;69978;50.096;8.448;2023-05-10T05:22:47;13.70;99.90
31387;DHT22;69978;50.096;8.448;2023-05-10T05:25:13;13.80;99.90
31387;DHT22;69978;50.096;8.448;2023-05-10T05:27:38;13.80;99.90
31387;DHT22;69978;50.096;8.448;2023-05-10T05:30:04;13.70;99.90
31387;DHT22;69978;50.096;8.448;2023-05-10T05:32:30;13.80;99.90
31387;DHT22;69978;50.096;8.448;2023-05-10T05:34:56;13.80;99.90
31387;DHT22;69978;50.096;8.448;2023-05-10T05:37:21;13.80;99.90
31387;DHT22;69978;50.096;8.448;2023-05-10T05:39:48;13.90;99.90
31387;DHT22;69978;50.096;8.448;2023-05-10T05:42:14;13.80;99.90
31387;DHT22;69978;50.096;8.448;2023-05-10T05:44:41;13.90;99.90
31387;DHT22;69978;50.096;8.448;2023-05-10T05:47:07;13.90;99.90
31387;DHT22;69978;50.096;8.448;2023-05-10T05:49:32;13.90;99.90
31387;DHT22;69978;50.096;8.448;2023-05-10T05:51:59;14.00;99.90
31387;DHT22;69978;50.096;8.448;2023-05-10T05:54:25;14.00;99.90
31387;DHT22;69978;50.096;8.448;2023-05-10T05:56:56;14.00;99.90
31387;DHT22;69978;50.096;8.448;2023-05-10T05:59:22;14.00;99.90
31387;DHT22;69978;50.096;8.448;2023-05-10T06:01:48;14.00;99.90
31387;DHT22;69978;50.096;8.448;2023-05-10T06:04:14;14.10;99.90
31387;DHT22;69978;50.096;8.448;2023-05-10T06:06:39;14.10;99.90
31387;DHT22;69978;50.096;8.448;2023-05-10T06:09:05;14.20;99.90
31387;DHT22;69978;50.096;8.448;2023-05-10T06:11:30;14.20;99.90
31387;DHT22;69978;50.096;8.448;2023-05-10T06:13:58;14.20;99.90
31387;DHT22;69978;50.096;8.448;2023-05-10T06:16:23;14.30;99.90
31387;DHT22;69978;50.096;8.448;2023-05-10T06:18:49;14.30;99.90
31387;DHT22;69978;50.096;8.448;2023-05-10T06:21:14;14.30;99.90
31387;DHT22;69978;50.096;8.448;2023-05-10T06:23:41;14.30;99.90
31387;DHT22;69978;50.096;8.448;2023-05-10T06:26:07;14.30;99.90
31387;DHT22;69978;50.096;8.448;2023-05-10T06:28:32;14.40;99.90
31387;DHT22;69978;50.096;8.448;2023-05-10T06:30:59;14.40;99.90
31387;DHT22;69978;50.096;8.448;2023-05-10T06:33:24;14.40;99.90
31387;DHT22;69978;50.096;8.448;2023-05-10T06:35:50;14.40;99.90
31387;DHT22;69978;50.096;8.448;2023-05-10T06:38:16;14.30;99.90
31387;DHT22;69978;50.096;8.448;2023-05-10T06:40:42;14.40;99.90
31387;DHT22;69978;50.096;8.448;2023-05-10T06:43:08;14.40;99.90
31387;DHT22;69978;50.096;8.448;2023-05-10T06:45:33;14.50;99.90
31387;DHT22;69978;50.096;8.448;2023-05-10T06:47:59;14.60;99.90
31387;DHT22;69978;50.096;8.448;2023-05-10T06:50:25;14.70;99.90
31387;DHT22;69978;50.096;8.448;2023-05-10T06:52:50;14.70;99.90
31387;DHT22;69978;50.096;8.448;2023-05-10T06:55:16;14.70;99.90
31387;DHT22;69978;50.096;8.448;2023-05-10T06:57:41;14.70;99.90
31387;DHT22;69978;50.096;8.448;2023-05-10T07:00:07;14.70;99.90
31387;DHT22;69978;50.096;8.448;2023-05-10T07:02:34;14.70;99.90
31387;DHT22;69978;50.096;8.448;2023-05-10T07:05:00;14.60;99.90
31387;DHT22;69978;50.096;8.448;2023-05-10T07:07:26;14.60;99.90
31387;DHT22;69978;50.096;8.448;2023-05-10T07:09:51;14.50;99.90
31387;DHT22;69978;50.096;8.448;2023-05-10T07:12:17;14.60;99.90
31387;DHT22;69978;50.096;8.448;2023-05-10T07:14:43;14.60;99.90
31387;DHT22;69978;50.096;8.448;2023-05-10T07:17:09;14.60;99.90
31387;DHT22;69978;50.096;8.448;2023-05-10T07:19:35;14.70;99.90
31387;DHT22;69978;50.096;8.448;2023-05-10T07:22:01;14.80;99.90
31387;DHT22;69978;50.096;8.448;2023-05-10T07:24:27;14.80;99.90
31387;DHT22;69978;50.096;8.448;2023-05-10T07:26:52;14.80;99.90
31387;DHT22;69978;50.096;8.448;2023-05-10T07:29:18;14.70;99.90
31387;DHT22;69978;50.096;8.448;2023-05-10T07:31:43;14.70;99.90
31387;DHT22;69978;50.096;8.448;2023-05-10T07:34:09;14.80;99.90
31387;DHT22;69978;50.096;8.448;2023-05-10T07:36:35;14.80;99.90
31387;DHT22;69978;50.096;8.448;2023-05-10T07:39:01;14.90;99.90
31387;DHT22;69978;50.096;8.448;2023-05-10T07:41:27;15.10;99.90
31387;DHT22;69978;50.096;8.448;2023-05-10T07:43:53;15.10;99.90
31387;DHT22;69978;50.096;8.448;2023-05-10T07:46:18;15.00;99.90
31387;DHT22;69978;50.096;8.448;2023-05-10T07:48:45;15.20;99.90
31387;DHT22;69978;50.096;8.448;2023-05-10T07:51:10;15.30;99.90
31387;DHT22;69978;50.096;8.448;2023-05-10T07:53:37;15.40;99.90
31387;DHT22;69978;50.096;8.448;2023-05-10T07:58:45;15.70;99.90
31387;DHT22;69978;50.096;8.448;2023-05-10T08:01:10;15.50;99.90
31387;DHT22;69978;50.096;8.448;2023-05-10T08:03:36;15.50;99.90
31387;DHT22;69978;50.096;8.448;2023-05-10T08:06:01;15.50;99.90
31387;DHT22;69978;50.096;8.448;2023-05-10T08:08:27;15.40;99.90
31387;DHT22;69978;50.096;8.448;2023-05-10T08:10:53;15.40;99.90
31387;DHT22;69978;50.096;8.448;2023-05-10T08:13:18;15.40;99.90
31387;DHT22;69978;50.096;8.448;2023-05-10T08:15:44;15.30;99.90
31387;DHT22;69978;50.096;8.448;2023-05-10T08:18:09;15.50;99.90
31387;DHT22;69978;50.096;8.448;2023-05-10T08:20:35;15.50;99.90
31387;DHT22;69978;50.096;8.448;2023-05-10T08:23:00;15.40;99.90
31387;DHT22;69978;50.096;8.448;2023-05-10T08:25:26;15.40;99.90
31387;DHT22;69978;50.096;8.448;2023-05-10T08:27:51;15.60;99.90
31387;DHT22;69978;50.096;8.448;2023-05-10T08:30:17;15.60;99.90
31387;DHT22;69978;50.096;8.448;2023-05-10T08:32:43;15.70;99.90
31387;DHT22;69978;50.096;8.448;2023-05-10T08:35:08;15.60;99.90
31387;DHT22;69978;50.096;8.448;2023-05-10T08:37:34;15.70;99.90
31387;DHT22;69978;50.096;8.448;2023-05-10T08:39:59;15.90;99.90
31387;DHT22;69978;50.096;8.448;2023-05-10T08:42:27;16.20;99.90
31387;DHT22;69978;50.096;8.448;2023-05-10T08:44:54;16.40;99.90
31387;DHT22;69978;50.096;8.448;2023-05-10T08:47:20;16.60;99.90
31387;DHT22;69978;50.096;8.448;2023-05-10T08:49:47;16.60;99.90
31387;DHT22;69978;50.096;8.448;2023-05-10T08:52:17;16.60;99.90
31387;DHT22;69978;50.096;8.448;2023-05-10T08:54:43;16.60;99.90
31387;DHT22;69978;50.096;8.448;2023-05-10T08:57:10;16.50;99.90
31387;DHT22;69978;50.096;8.448;2023-05-10T08:59:36;16.30;99.90
31387;DHT22;69978;50.096;8.448;2023-05-10T09:02:04;15.90;99.90
31387;DHT22;69978;50.096;8.448;2023-05-10T09:04:30;15.80;99.90
31387;DHT22;69978;50.096;8.448;2023-05-10T09:06:56;16.10;99.90
31387;DHT22;69978;50.096;8.448;2023-05-10T09:09:23;16.10;99.90
31387;DHT22;69978;50.096;8.448;2023-05-10T09:11:50;16.50;99.90
31387;DHT22;69978;50.096;8.448;2023-05-10T09:14:16;16.60;99.90
31387;DHT22;69978;50.096;8.448;2023-05-10T09:16:42;16.60;99.90
31387;DHT22;69978;50.096;8.448;2023-05-10T09:19:08;16.50;99.90
31387;DHT22;69978;50.096;8.448;2023-05-10T09:21:35;16.70;99.90
31387;DHT22;69978;50.096;8.448;2023-05-10T09:24:07;16.70;99.90
31387;DHT22;69978;50.096;8.448;2023-05-10T09:26:34;16.40;99.90
31387;DHT22;69978;50.096;8.448;2023-05-10T09:29:01;16.30;99.90
31387;DHT22;69978;50.096;8.448;2023-05-10T09:31:46;16.20;99.90
31387;DHT22;69978;50.096;8.448;2023-05-10T09:34:19;16.00;99.90
31387;DHT22;69978;50.096;8.448;2023-05-10T09:37:02;16.00;99.90
31387;DHT22;69978;50.096;8.448;2023-05-10T09:39:38;16.00;99.90
31387;DHT22;69978;50.096;8.448;2023-05-10T09:42:09;15.90;99.90
31387;DHT22;69978;50.096;8.448;2023-05-10T09:44:35;16.00;99.90
31387;DHT22;69978;50.096;8.448;2023-05-10T09:47:17;16.20;99.90
31387;DHT22;69978;50.096;8.448;2023-05-10T09:49:50;16.40;99.90
31387;DHT22;69978;50.096;8.448;2023-05-10T09:52:16;16.50;99.90
31387;DHT22;69978;50.096;8.448;2023-05-10T09:54:52;16.50;99.90
31387;DHT22;69978;50.096;8.448;2023-05-10T09:57:24;16.50;99.90
31387;DHT22;69978;50.096;8.448;2023-05-10T09:59:51;16.50;99.90
31387;DHT22;69978;50.096;8.448;2023-05-10T10:02:19;16.60;99.90
31387;DHT22;69978;50.096;8.448;2023-05-10T10:04:45;17.10;99.90
31387;DHT22;69978;50.096;8.448;2023-05-10T10:07:22;17.30;99.90
31387;DHT22;69978;50.096;8.448;2023-05-10T10:09:49;16.90;99.90
31387;DHT22;69978;50.096;8.448;2023-05-10T10:12:15;16.50;99.90
31387;DHT22;69978;50.096;8.448;2023-05-10T10:14:45;16.10;99.90
31387;DHT22;69978;50.096;8.448;2023-05-10T10:17:13;15.80;99.90
31387;DHT22;69978;50.096;8.448;2023-05-10T10:19:39;15.70;99.90
31387;DHT22;69978;50.096;8.448;2023-05-10T10:22:06;15.50;99.90
31387;DHT22;69978;50.096;8.448;2023-05-10T10:24:33;15.30;99.90
31387;DHT22;69978;50.096;8.448;2023-05-10T10:27:34;15.10;99.90
31387;DHT22;69978;50.096;8.448;2023-05-10T10:35:33;15.10;99.90
31387;DHT22;69978;50.096;8.448;2023-05-10T10:38:00;15.10;99.90
31387;DHT22;69978;50.096;8.448;2023-05-10T10:40:46;15.20;99.90
31387;DHT22;69978;50.096;8.448;2023-05-10T10:43:25;15.30;99.90
31387;DHT22;69978;50.096;8.448;2023-05-10T10:49:10;15.80;99.90
31387;DHT22;69978;50.096;8.448;2023-05-10T10:51:39;16.00;99.90
31387;DHT22;69978;50.096;8.448;2023-05-10T10:54:11;16.30;99.90
31387;DHT22;69978;50.096;8.448;2023-05-10T10:56:44;16.40;99.90
31387;DHT22;69978;50.096;8.448;2023-05-10T10:59:10;16.40;99.90
31387;DHT22;69978;50.096;8.448;2023-05-10T11:01:38;16.20;99.90
31387;DHT22;69978;50.096;8.448;2023-05-10T11:04:20;16.10;99.90
31387;DHT22;69978;50.096;8.448;2023-05-10T11:07:18;15.90;99.90
31387;DHT22;69978;50.096;8.448;2023-05-10T11:09:46;15.90;99.90
31387;DHT22;69978;50.096;8.448;2023-05-10T11:12:12;15.90;99.90
31387;DHT22;69978;50.096;8.448;2023-05-10T11:14:40;15.90;99.90
31387;DHT22;69978;50.096;8.448;2023-05-10T11:17:26;15.90;99.90
31387;DHT22;69978;50.096;8.448;2023-05-10T11:20:09;16.00;99.90
31387;DHT22;69978;50.096;8.448;2023-05-10T11:25:17;16.30;99.90
31387;DHT22;69978;50.096;8.448;2023-05-10T11:27:42;16.60;99.90
31387;DHT22;69978;50.096;8.448;2023-05-10T11:30:10;16.80;99.90
31387;DHT22;69978;50.096;8.448;2023-05-10T11:32:40;16.80;99.90
31387;DHT22;69978;50.096;8.448;2023-05-10T11:35:09;16.90;99.90
31387;DHT22;69978;50.096;8.448;2023-05-10T11:37:36;17.00;99.90
31387;DHT22;69978;50.096;8.448;2023-05-10T11:40:01;17.30;99.90
31387;DHT22;69978;50.096;8.448;2023-05-10T11:42:28;17.50;99.90
31387;DHT22;69978;50.096;8.448;2023-05-10T11:44:54;17.60;99.90
31387;DHT22;69978;50.096;8.448;2023-05-10T11:47:20;17.80;99.90
31387;DHT22;69978;50.096;8.448;2023-05-10T11:49:47;18.00;99.90
31387;DHT22;69978;50.096;8.448;2023-05-10T11:52:13;18.30;99.90
31387;DHT22;69978;50.096;8.448;2023-05-10T11:54:46;18.30;99.90
31387;DHT22;69978;50.096;8.448;2023-05-10T11:57:16;18.30;99.90
31387;DHT22;69978;50.096;8.448;2023-05-10T11:59:43;18.40;99.90
31387;DHT22;69978;50.096;8.448;2023-05-10T12:02:09;18.60;99.90
31387;DHT22;69978;50.096;8.448;2023-05-10T12:04:35;18.90;99.90
31387;DHT22;69978;50.096;8.448;2023-05-10T12:07:01;19.40;99.90
31387;DHT22;69978;50.096;8.448;2023-05-10T12:09:26;19.60;99.90
31387;DHT22;69978;50.096;8.448;2023-05-10T12:11:55;19.60;99.90
31387;DHT22;69978;50.096;8.448;2023-05-10T12:14:22;19.50;99.90
31387;DHT22;69978;50.096;8.448;2023-05-10T12:16:50;19.20;99.90
31387;DHT22;69978;50.096;8.448;2023-05-10T12:19:19;18.80;99.90
31387;DHT22;69978;50.096;8.448;2023-05-10T12:21:48;18.80;99.90
31387;DHT22;69978;50.096;8.448;2023-05-10T12:24:14;19.30;99.90
31387;DHT22;69978;50.096;8.448;2023-05-10T12:26:44;19.70;99.90
31387;DHT22;69978;50.096;8.448;2023-05-10T12:29:15;20.30;99.90
31387;DHT22;69978;50.096;8.448;2023-05-10T12:31:58;20.50;99.90
31387;DHT22;69978;50.096;8.448;2023-05-10T12:34:30;20.60;99.90
31387;DHT22;69978;50.096;8.448;2023-05-10T12:36:57;20.80;99.90
31387;DHT22;69978;50.096;8.448;2023-05-10T12:39:25;20.70;99.90
31387;DHT22;69978;50.096;8.448;2023-05-10T12:41:52;20.90;99.90
31387;DHT22;69978;50.096;8.448;2023-05-10T12:44:18;20.70;99.90
31387;DHT22;69978;50.096;8.448;2023-05-10T12:46:43;20.60;99.90
31387;DHT22;69978;50.096;8.448;2023-05-10T12:49:09;20.20;99.90
31387;DHT22;69978;50.096;8.448;2023-05-10T12:51:35;19.90;99.90
31387;DHT22;69978;50.096;8.448;2023-05-10T12:54:03;19.50;99.90
31387;DHT22;69978;50.096;8.448;2023-05-10T12:56:29;18.90;99.90
31387;DHT22;69978;50.096;8.448;2023-05-10T12:58:54;18.70;99.90
31387;DHT22;69978;50.096;8.448;2023-05-10T13:01:20;18.60;99.90
31387;DHT22;69978;50.096;8.448;2023-05-10T13:03:45;18.50;99.90
31387;DHT22;69978;50.096;8.448;2023-05-10T13:06:12;18.30;99.90
31387;DHT22;69978;50.096;8.448;2023-05-10T13:08:38;18.40;99.90
31387;DHT22;69978;50.096;8.448;2023-05-10T13:11:05;18.60;99.90
31387;DHT22;69978;50.096;8.448;2023-05-10T13:13:30;19.00;99.90
31387;DHT22;69978;50.096;8.448;2023-05-10T13:15:56;19.20;99.90
31387;DHT22;69978;50.096;8.448;2023-05-10T13:18:24;19.80;99.90
31387;DHT22;69978;50.096;8.448;2023-05-10T13:20:51;20.70;99.90
31387;DHT22;69978;50.096;8.448;2023-05-10T13:23:17;20.90;99.90
31387;DHT22;69978;50.096;8.448;2023-05-10T13:25:42;21.00;99.90
31387;DHT22;69978;50.096;8.448;2023-05-10T13:28:08;21.10;99.90
31387;DHT22;69978;50.096;8.448;2023-05-10T13:30:36;21.20;99.90
31387;DHT22;69978;50.096;8.448;2023-05-10T13:33:08;21.00;99.90
31387;DHT22;69978;50.096;8.448;2023-05-10T13:35:42;21.20;99.90
31387;DHT22;69978;50.096;8.448;2023-05-10T13:38:42;21.30;99.90
31387;DHT22;69978;50.096;8.448;2023-05-10T13:41:10;21.20;99.90
31387;DHT22;69978;50.096;8.448;2023-05-10T13:43:36;21.20;99.90
31387;DHT22;69978;50.096;8.448;2023-05-10T13:46:02;21.20;99.90
31387;DHT22;69978;50.096;8.448;2023-05-10T13:48:28;20.80;99.90
31387;DHT22;69978;50.096;8.448;2023-05-10T13:50:54;20.60;99.90
31387;DHT22;69978;50.096;8.448;2023-05-10T13:53:19;20.60;99.90
31387;DHT22;69978;50.096;8.448;2023-05-10T13:55:47;20.40;99.90
31387;DHT22;69978;50.096;8.448;2023-05-10T13:58:13;20.40;99.90
31387;DHT22;69978;50.096;8.448;2023-05-10T14:00:38;20.30;99.90
31387;DHT22;69978;50.096;8.448;2023-05-10T14:03:04;20.10;99.90
31387;DHT22;69978;50.096;8.448;2023-05-10T14:05:34;19.80;99.90
31387;DHT22;69978;50.096;8.448;2023-05-10T14:07:59;19.80;99.90
31387;DHT22;69978;50.096;8.448;2023-05-10T14:10:25;19.80;99.90
31387;DHT22;69978;50.096;8.448;2023-05-10T14:12:51;19.80;99.90
31387;DHT22;69978;50.096;8.448;2023-05-10T14:15:16;19.80;99.90
31387;DHT22;69978;50.096;8.448;2023-05-10T14:17:42;19.80;99.90
31387;DHT22;69978;50.096;8.448;2023-05-10T14:20:08;19.80;99.90
31387;DHT22;69978;50.096;8.448;2023-05-10T14:22:34;19.80;99.90
31387;DHT22;69978;50.096;8.448;2023-05-10T14:25:00;19.70;99.90
31387;DHT22;69978;50.096;8.448;2023-05-10T14:27:25;19.70;99.90
31387;DHT22;69978;50.096;8.448;2023-05-10T14:29:51;19.80;99.90
31387;DHT22;69978;50.096;8.448;2023-05-10T14:32:17;19.60;99.90
31387;DHT22;69978;50.096;8.448;2023-05-10T14:34:42;19.80;99.90
31387;DHT22;69978;50.096;8.448;2023-05-10T14:37:10;19.90;99.90
31387;DHT22;69978;50.096;8.448;2023-05-10T14:39:36;20.00;99.90
31387;DHT22;69978;50.096;8.448;2023-05-10T14:42:03;19.90;99.90
31387;DHT22;69978;50.096;8.448;2023-05-10T14:44:28;20.00;99.90
31387;DHT22;69978;50.096;8.448;2023-05-10T14:46:54;20.00;99.90
31387;DHT22;69978;50.096;8.448;2023-05-10T14:49:20;20.00;99.90
31387;DHT22;69978;50.096;8.448;2023-05-10T14:51:48;19.90;99.90
31387;DHT22;69978;50.096;8.448;2023-05-10T14:54:14;20.00;99.90
31387;DHT22;69978;50.096;8.448;2023-05-10T14:56:39;20.10;99.90
31387;DHT22;69978;50.096;8.448;2023-05-10T14:59:07;20.10;99.90
31387;DHT22;69978;50.096;8.448;2023-05-10T15:01:32;20.00;99.90
31387;DHT22;69978;50.096;8.448;2023-05-10T15:03:59;19.90;99.90
31387;DHT22;69978;50.096;8.448;2023-05-10T15:06:31;19.80;99.90
31387;DHT22;69978;50.096;8.448;2023-05-10T15:08:57;19.60;99.90
31387;DHT22;69978;50.096;8.448;2023-05-10T15:11:22;19.60;99.90
31387;DHT22;69978;50.096;8.448;2023-05-10T15:13:48;19.70;99.90
31387;DHT22;69978;50.096;8.448;2023-05-10T15:16:13;19.60;99.90
31387;DHT22;69978;50.096;8.448;2023-05-10T15:18:39;19.50;99.90
31387;DHT22;69978;50.096;8.448;2023-05-10T15:21:05;19.50;99.90
31387;DHT22;69978;50.096;8.448;2023-05-10T15:23:30;19.40;99.90
31387;DHT22;69978;50.096;8.448;2023-05-10T15:25:56;19.40;99.90
31387;DHT22;69978;50.096;8.448;2023-05-10T15:28:22;19.40;99.90
31387;DHT22;69978;50.096;8.448;2023-05-10T15:30:48;19.30;99.90
31387;DHT22;69978;50.096;8.448;2023-05-10T15:33:14;19.10;99.90
31387;DHT22;69978;50.096;8.448;2023-05-10T15:35:39;19.10;99.90
31387;DHT22;69978;50.096;8.448;2023-05-10T15:38:05;19.10;99.90
31387;DHT22;69978;50.096;8.448;2023-05-10T15:40:31;19.10;99.90
31387;DHT22;69978;50.096;8.448;2023-05-10T15:42:56;19.00;99.90
31387;DHT22;69978;50.096;8.448;2023-05-10T15:45:22;18.90;99.90
31387;DHT22;69978;50.096;8.448;2023-05-10T15:47:48;18.90;99.90
31387;DHT22;69978;50.096;8.448;2023-05-10T15:50:14;18.90;99.90
31387;DHT22;69978;50.096;8.448;2023-05-10T15:52:40;18.90;99.90
31387;DHT22;69978;50.096;8.448;2023-05-10T15:55:07;18.90;99.90
31387;DHT22;69978;50.096;8.448;2023-05-10T15:57:43;18.90;99.90
31387;DHT22;69978;50.096;8.448;2023-05-10T16:00:10;18.80;99.90
31387;DHT22;69978;50.096;8.448;2023-05-10T16:02:36;18.70;99.90
31387;DHT22;69978;50.096;8.448;2023-05-10T16:05:02;18.60;99.90
31387;DHT22;69978;50.096;8.448;2023-05-10T16:07:28;18.60;99.90